createdAt,value
2022-08-20T00:00:25.354Z,91.73
2022-08-20T00:02:57.263Z,96.63
2022-08-20T00:05:40.095Z,93.50
2022-08-20T00:08:09.942Z,94.90
2022-08-20T00:10:42.033Z,93.40
2022-08-20T00:13:16.138Z,90.00
2022-08-20T00:15:48.683Z,92.07
2022-08-20T00:18:17.259Z,95.73
2022-08-20T00:20:48.815Z,95.63
2022-08-20T00:23:23.889Z,94.67
2022-08-20T00:25:52.352Z,97.23
2022-08-20T00:28:22.180Z,93.57
2022-08-20T00:31:05.672Z,90.20
2022-08-20T00:33:35.630Z,92.30
2022-08-20T00:36:10.916Z,96.53
2022-08-20T00:38:40.128Z,92.20
2022-08-20T00:41:11.658Z,98.67
2022-08-20T00:43:54.239Z,95.83
2022-08-20T00:46:31.626Z,96.07
2022-08-20T00:49:03.413Z,95.20
2022-08-20T00:51:36.305Z,96.97
2022-08-20T00:54:10.940Z,97.27
2022-08-20T00:56:43.041Z,95.17
2022-08-20T00:59:17.751Z,94.97
2022-08-20T01:01:55.042Z,95.73
2022-08-20T01:04:26.452Z,93.80
2022-08-20T01:06:54.966Z,94.80
2022-08-20T01:09:33.367Z,98.63
2022-08-20T01:12:15.394Z,95.57
2022-08-20T01:14:47.767Z,98.17
2022-08-20T01:17:22.233Z,97.53
2022-08-20T01:19:54.182Z,100.50
2022-08-20T01:22:49.812Z,97.40
2022-08-20T01:25:24.002Z,95.67
2022-08-20T01:27:56.164Z,96.77
2022-08-20T01:30:27.884Z,96.33
2022-08-20T01:32:59.039Z,96.00
2022-08-20T01:35:30.082Z,96.10
2022-08-20T01:38:01.476Z,98.03
2022-08-20T01:41:08.505Z,96.90
2022-08-20T01:43:42.019Z,97.27
2022-08-20T01:46:11.842Z,95.50
2022-08-20T01:48:42.063Z,97.60
2022-08-20T01:51:18.328Z,100.57
2022-08-20T01:53:49.901Z,99.50
2022-08-20T01:56:22.068Z,98.53
2022-08-20T01:59:01.050Z,99.70
2022-08-20T02:01:33.853Z,97.20
2022-08-20T02:04:18.138Z,98.23
2022-08-20T02:06:56.476Z,99.63
2022-08-20T02:09:29.596Z,98.43
2022-08-20T02:11:59.923Z,103.23
2022-08-20T02:14:29.675Z,100.33
2022-08-20T02:17:01.456Z,101.60
2022-08-20T02:19:42.096Z,101.93
2022-08-20T02:22:18.686Z,103.30
2022-08-20T02:24:48.382Z,102.40
2022-08-20T02:27:17.549Z,106.23
2022-08-20T02:29:49.205Z,103.93
2022-08-20T02:32:32.063Z,102.90
2022-08-20T02:35:03.832Z,103.00
2022-08-20T02:37:33.374Z,106.03
2022-08-20T02:40:01.849Z,104.57
2022-08-20T02:42:32.100Z,104.10
2022-08-20T02:45:08.266Z,104.37
2022-08-20T02:47:45.537Z,104.70
2022-08-20T02:50:17.700Z,106.87
2022-08-20T02:52:51.985Z,106.27
2022-08-20T02:55:27.252Z,106.10
2022-08-20T02:57:58.843Z,105.03
2022-08-20T03:00:38.539Z,105.17
2022-08-20T03:03:09.428Z,103.97
2022-08-20T03:05:43.938Z,103.20
2022-08-20T03:08:14.796Z,104.23
2022-08-20T03:10:46.069Z,102.33
2022-08-20T03:13:17.643Z,104.07
2022-08-20T03:15:49.488Z,103.60
2022-08-20T03:18:18.710Z,104.17
2022-08-20T03:20:52.158Z,103.00
2022-08-20T03:23:21.885Z,104.23
2022-08-20T03:25:50.750Z,104.60
2022-08-20T03:28:19.918Z,105.07
2022-08-20T03:30:53.314Z,105.20
2022-08-20T03:33:28.459Z,100.47
2022-08-20T03:35:56.641Z,101.60
2022-08-20T03:38:33.827Z,99.57
2022-08-20T03:41:03.210Z,100.70
2022-08-20T03:43:32.217Z,98.63
2022-08-20T03:46:02.285Z,99.30
2022-08-20T03:48:32.860Z,100.67
2022-08-20T03:51:02.656Z,102.20
2022-08-20T03:53:36.783Z,103.03
2022-08-20T03:56:07.733Z,100.83
2022-08-20T03:58:36.950Z,99.27
2022-08-20T04:01:36.778Z,98.70
2022-08-20T04:03:58.883Z,100.67
2022-08-20T04:06:30.509Z,97.07
2022-08-20T04:08:58.806Z,98.67
2022-08-20T04:11:28.955Z,96.37
2022-08-20T04:14:00.152Z,99.23
2022-08-20T04:16:30.223Z,96.20
2022-08-20T04:19:02.460Z,97.60
2022-08-20T04:21:32.660Z,97.40
2022-08-20T04:24:07.440Z,96.07
2022-08-20T04:26:37.423Z,99.23
2022-08-20T04:29:13.515Z,94.47
2022-08-20T04:31:43.100Z,96.93
2022-08-20T04:34:12.934Z,92.40
2022-08-20T04:36:43.169Z,93.20
2022-08-20T04:39:11.364Z,93.57
2022-08-20T04:41:40.589Z,93.67
2022-08-20T04:44:11.551Z,93.80
2022-08-20T04:46:43.848Z,94.00
2022-08-20T04:49:12.729Z,94.80
2022-08-20T04:51:41.941Z,92.57
2022-08-20T04:54:14.546Z,95.90
2022-08-20T04:56:46.943Z,97.30
2022-08-20T04:59:17.187Z,98.63
2022-08-20T05:01:47.364Z,98.13
2022-08-20T05:04:16.640Z,97.97
2022-08-20T05:06:46.810Z,100.47
2022-08-20T05:09:17.012Z,98.13
2022-08-20T05:11:45.311Z,95.57
2022-08-20T05:14:15.856Z,99.43
2022-08-20T05:16:48.439Z,98.97
2022-08-20T05:19:22.549Z,97.70
2022-08-20T05:21:52.646Z,95.80
2022-08-20T05:24:24.061Z,97.53
2022-08-20T05:26:55.354Z,97.50
2022-08-20T05:29:24.745Z,97.63
2022-08-20T05:31:54.454Z,96.57
2022-08-20T05:34:25.216Z,97.60
2022-08-20T05:36:54.228Z,98.60
2022-08-20T05:39:25.547Z,99.70
2022-08-20T05:41:55.841Z,102.93
2022-08-20T05:44:24.129Z,101.03
2022-08-20T05:46:56.194Z,101.47
2022-08-20T05:49:24.374Z,105.67
2022-08-20T05:51:54.488Z,113.43
2022-08-20T05:54:23.967Z,112.97
2022-08-20T05:56:58.267Z,113.37
2022-08-20T05:59:29.047Z,115.47
2022-08-20T06:01:59.749Z,114.13
2022-08-20T06:04:28.306Z,114.27
2022-08-20T06:06:59.218Z,115.87
2022-08-20T06:09:35.168Z,114.53
2022-08-20T06:12:09.042Z,116.33
2022-08-20T06:14:43.165Z,116.87
2022-08-20T06:17:22.336Z,120.67
2022-08-20T06:19:52.171Z,120.00
2022-08-20T06:22:27.112Z,118.60
2022-08-20T06:24:56.894Z,115.50
2022-08-20T06:27:26.680Z,117.70
2022-08-20T06:29:56.697Z,117.37
2022-08-20T06:32:28.824Z,119.10
2022-08-20T06:35:11.256Z,118.10
2022-08-20T06:37:43.343Z,118.73
2022-08-20T06:40:17.773Z,116.93
2022-08-20T06:42:48.743Z,114.57
2022-08-20T06:45:19.794Z,112.80
2022-08-20T06:47:51.066Z,114.33
2022-08-20T06:50:29.357Z,113.73
2022-08-20T06:52:58.860Z,113.03
2022-08-20T06:55:48.432Z,107.10
2022-08-20T06:58:35.804Z,104.83
2022-08-20T07:01:09.250Z,104.03
2022-08-20T07:03:42.169Z,104.37
2022-08-20T07:06:25.065Z,101.63
2022-08-20T07:08:54.827Z,99.17
2022-08-20T07:11:27.836Z,95.93
2022-08-20T07:13:58.445Z,96.57
2022-08-20T07:16:29.049Z,96.13
2022-08-20T07:18:59.841Z,88.60
2022-08-20T07:21:28.000Z,84.77
2022-08-20T07:23:56.379Z,75.57
2022-08-20T07:26:26.826Z,69.10
2022-08-20T07:28:56.968Z,67.23
2022-08-20T07:31:43.850Z,60.10
2022-08-20T07:34:19.630Z,53.50
2022-08-20T07:36:50.471Z,48.10
2022-08-20T07:39:20.418Z,41.83
2022-08-20T07:42:03.443Z,34.87
2022-08-20T07:44:32.041Z,33.77
2022-08-20T07:47:00.565Z,35.83
2022-08-20T07:49:30.082Z,32.70
2022-08-20T07:51:58.107Z,34.07
2022-08-20T07:54:38.182Z,30.53
2022-08-20T07:57:07.403Z,28.40
2022-08-20T07:59:37.663Z,28.93
2022-08-20T08:02:06.876Z,26.80
2022-08-20T08:04:37.288Z,24.80
2022-08-20T08:07:06.089Z,25.80
2022-08-20T08:09:36.411Z,25.83
2022-08-20T08:12:05.602Z,26.57
2022-08-20T08:14:35.820Z,26.33
2022-08-20T08:17:05.682Z,24.00
2022-08-20T08:19:39.048Z,22.60
2022-08-20T08:22:11.579Z,22.70
2022-08-20T08:24:39.997Z,22.37
2022-08-20T08:27:08.960Z,22.10
2022-08-20T08:29:37.685Z,22.37
2022-08-20T08:32:07.206Z,22.80
2022-08-20T08:34:41.708Z,23.10
2022-08-20T08:37:09.955Z,22.93
2022-08-20T08:39:38.287Z,22.00
2022-08-20T08:42:22.280Z,21.93
2022-08-20T08:44:51.552Z,21.43
2022-08-20T08:47:25.688Z,22.83
2022-08-20T08:49:58.169Z,20.97
2022-08-20T08:52:31.581Z,21.10
2022-08-20T08:55:04.143Z,46.47
2022-08-20T08:57:33.953Z,20.73
2022-08-20T09:00:05.807Z,22.17
2022-08-20T09:02:36.317Z,21.10
2022-08-20T09:05:17.728Z,20.87
2022-08-20T09:07:51.137Z,20.97
2022-08-20T09:10:23.147Z,21.53
2022-08-20T09:12:52.376Z,21.80
2022-08-20T09:15:21.347Z,21.50
2022-08-20T09:17:49.709Z,21.20
2022-08-20T09:20:25.953Z,21.30
2022-08-20T09:22:55.189Z,20.97
2022-08-20T09:25:23.814Z,20.97
2022-08-20T09:27:51.903Z,24.13
2022-08-20T09:30:21.297Z,22.20
2022-08-20T09:32:50.557Z,20.83
2022-08-20T09:35:19.959Z,20.70
2022-08-20T09:37:52.909Z,20.60
2022-08-20T09:40:22.958Z,20.93
2022-08-20T09:42:51.591Z,21.07
2022-08-20T09:45:20.119Z,20.77
2022-08-20T09:47:56.910Z,21.50
2022-08-20T09:50:28.534Z,22.33
2022-08-20T09:52:58.758Z,22.47
2022-08-20T09:55:32.650Z,20.43
2022-08-20T09:58:01.943Z,21.20
2022-08-20T10:00:30.016Z,20.80
2022-08-20T10:02:58.190Z,26.37
2022-08-20T10:05:27.668Z,20.23
2022-08-20T10:07:56.061Z,20.50
2022-08-20T10:10:24.343Z,20.47
2022-08-20T10:12:54.931Z,20.80
2022-08-20T10:15:23.223Z,20.60
2022-08-20T10:17:51.190Z,20.90
2022-08-20T10:20:19.724Z,20.90
2022-08-20T10:22:49.281Z,20.80
2022-08-20T10:25:17.902Z,20.53
2022-08-20T10:27:46.106Z,20.70
2022-08-20T10:30:14.309Z,20.43
2022-08-20T10:32:42.771Z,20.90
2022-08-20T10:35:11.870Z,19.93
2022-08-20T10:37:40.007Z,20.10
2022-08-20T10:40:11.183Z,20.13
2022-08-20T10:42:42.620Z,20.03
2022-08-20T10:45:11.515Z,19.77
2022-08-20T10:47:39.990Z,20.97
2022-08-20T10:50:11.991Z,19.90
2022-08-20T10:52:39.925Z,20.00
2022-08-20T10:55:10.694Z,19.83
2022-08-20T10:57:40.525Z,19.87
2022-08-20T11:00:10.987Z,21.13
2022-08-20T11:02:39.140Z,19.10
2022-08-20T11:05:12.267Z,19.50
2022-08-20T11:07:54.253Z,21.00
2022-08-20T11:10:27.641Z,20.47
2022-08-20T11:12:56.448Z,20.50
2022-08-20T11:15:24.669Z,20.70
2022-08-20T11:17:52.595Z,20.13
2022-08-20T11:20:24.157Z,20.00
2022-08-20T11:22:52.245Z,20.40
2022-08-20T11:25:22.703Z,21.37
2022-08-20T11:28:00.112Z,20.57
2022-08-20T11:30:36.245Z,20.87
2022-08-20T11:33:10.279Z,20.33
2022-08-20T11:35:49.204Z,20.90
2022-08-20T11:38:18.787Z,21.70
2022-08-20T11:40:47.833Z,21.00
2022-08-20T11:43:27.663Z,22.37
2022-08-20T11:45:57.291Z,20.60
2022-08-20T11:48:26.746Z,23.10
2022-08-20T11:51:10.423Z,22.13
2022-08-20T11:53:39.646Z,22.50
2022-08-20T11:56:18.213Z,19.43
2022-08-20T11:58:49.426Z,23.40
2022-08-20T12:01:23.500Z,21.90
2022-08-20T12:03:51.853Z,20.43
2022-08-20T12:06:20.316Z,20.70
2022-08-20T12:08:50.603Z,20.27
2022-08-20T12:11:19.853Z,20.03
2022-08-20T12:13:57.538Z,20.10
2022-08-20T12:16:25.780Z,20.10
2022-08-20T12:18:57.083Z,20.50
2022-08-20T12:21:33.449Z,20.20
2022-08-20T12:24:06.457Z,20.57
2022-08-20T12:26:35.772Z,19.57
2022-08-20T12:29:13.298Z,19.30
2022-08-20T12:31:56.700Z,19.40
2022-08-20T12:34:35.406Z,19.57
2022-08-20T12:37:15.964Z,20.00
2022-08-20T12:40:10.986Z,18.93
2022-08-20T12:42:50.480Z,20.50
2022-08-20T12:45:20.326Z,18.87
2022-08-20T12:47:51.821Z,19.13
2022-08-20T12:50:31.253Z,18.97
2022-08-20T12:53:07.062Z,20.37
2022-08-20T12:55:39.550Z,19.13
2022-08-20T12:58:24.821Z,19.67
2022-08-20T13:00:55.458Z,20.50
2022-08-20T13:03:32.269Z,20.07
2022-08-20T13:06:02.739Z,19.83
2022-08-20T13:08:35.168Z,18.77
2022-08-20T13:11:04.338Z,19.73
2022-08-20T13:13:33.635Z,20.90
2022-08-20T13:16:15.885Z,19.83
2022-08-20T13:18:45.543Z,20.03
2022-08-20T13:21:23.790Z,25.23
2022-08-20T13:23:53.271Z,20.70
2022-08-20T13:26:27.573Z,19.90
2022-08-20T13:28:58.879Z,20.23
2022-08-20T13:31:32.649Z,20.30
2022-08-20T13:34:07.981Z,19.37
2022-08-20T13:36:41.895Z,19.47
2022-08-20T13:39:16.816Z,19.47
2022-08-20T13:41:47.080Z,19.90
2022-08-20T13:44:16.524Z,19.27
2022-08-20T13:47:16.180Z,19.03
2022-08-20T13:49:44.504Z,19.70
2022-08-20T13:52:18.786Z,19.83
2022-08-20T13:54:50.778Z,19.80
2022-08-20T13:57:22.357Z,19.10
2022-08-20T13:59:53.133Z,19.73
2022-08-20T14:02:28.254Z,19.50
2022-08-20T14:04:56.719Z,19.10
2022-08-20T14:07:35.937Z,19.43
2022-08-20T14:10:08.824Z,19.33
2022-08-20T14:12:53.672Z,19.60
2022-08-20T14:15:23.039Z,19.30
2022-08-20T14:17:56.406Z,20.00
2022-08-20T14:20:38.667Z,19.90
2022-08-20T14:23:07.725Z,19.60
2022-08-20T14:25:48.310Z,19.33
2022-08-20T14:28:19.465Z,19.03
2022-08-20T14:31:19.848Z,18.63
2022-08-20T14:33:58.561Z,18.73
2022-08-20T14:36:36.813Z,18.90
2022-08-20T14:39:12.019Z,18.93
2022-08-20T14:41:42.358Z,18.40
2022-08-20T14:44:11.623Z,18.67
2022-08-20T14:46:43.969Z,19.30
2022-08-20T14:49:14.781Z,19.17
2022-08-20T14:51:46.090Z,19.00
2022-08-20T14:54:19.763Z,19.50
2022-08-20T14:57:06.850Z,20.13
2022-08-20T14:59:54.458Z,19.60
2022-08-20T15:02:34.902Z,19.70
2022-08-20T15:05:18.414Z,19.67
2022-08-20T15:07:51.744Z,20.13
2022-08-20T15:10:29.417Z,19.50
2022-08-20T15:12:58.981Z,19.30
2022-08-20T15:15:33.819Z,19.00
2022-08-20T15:18:03.669Z,19.90
2022-08-20T15:20:37.797Z,19.93
2022-08-20T15:23:06.359Z,19.87
2022-08-20T15:25:42.810Z,19.77
2022-08-20T15:28:22.986Z,19.77
2022-08-20T15:30:55.132Z,19.67
2022-08-20T15:33:27.427Z,19.17
2022-08-20T15:36:07.621Z,19.27
2022-08-20T15:38:41.749Z,19.60
2022-08-20T15:41:09.962Z,19.27
2022-08-20T15:43:38.379Z,26.73
2022-08-20T15:46:08.004Z,19.90
2022-08-20T15:48:48.418Z,19.60
2022-08-20T15:51:25.950Z,19.80
2022-08-20T15:54:00.031Z,19.90
2022-08-20T15:56:53.803Z,19.90
2022-08-20T15:59:39.146Z,19.23
2022-08-20T16:02:25.895Z,19.60
2022-08-20T16:05:18.986Z,19.47
2022-08-20T16:07:58.606Z,20.20
2022-08-20T16:10:31.557Z,19.30
2022-08-20T16:13:03.413Z,19.53
2022-08-20T16:15:35.129Z,19.80
2022-08-20T16:18:08.673Z,19.93
2022-08-20T16:20:41.921Z,20.27
2022-08-20T16:23:13.434Z,21.03
2022-08-20T16:26:00.147Z,20.10
2022-08-20T16:28:33.256Z,21.03
2022-08-20T16:31:06.415Z,20.43
2022-08-20T16:33:43.651Z,19.90
2022-08-20T16:36:19.717Z,19.60
2022-08-20T16:38:55.631Z,19.67
2022-08-20T16:41:28.918Z,19.60
2022-08-20T16:44:03.356Z,19.27
2022-08-20T16:46:38.119Z,19.20
2022-08-20T16:49:14.200Z,19.77
2022-08-20T16:51:49.455Z,20.63
2022-08-20T16:54:29.473Z,39.17
2022-08-20T16:57:01.494Z,20.03
2022-08-20T16:59:30.229Z,20.30
2022-08-20T17:02:07.195Z,28.33
2022-08-20T17:04:58.608Z,20.37
2022-08-20T17:07:33.286Z,20.37
2022-08-20T17:10:15.554Z,20.90
2022-08-20T17:12:43.579Z,20.10
2022-08-20T17:15:21.962Z,20.50
2022-08-20T17:17:49.983Z,21.00
2022-08-20T17:20:20.758Z,20.27
2022-08-20T17:22:52.751Z,20.10
2022-08-20T17:25:30.689Z,20.30
2022-08-20T17:28:00.411Z,19.50
2022-08-20T17:30:36.806Z,19.70
2022-08-20T17:33:07.630Z,19.50
2022-08-20T17:35:43.115Z,19.57
2022-08-20T17:38:25.836Z,19.60
2022-08-20T17:41:00.078Z,19.50
2022-08-20T17:43:30.698Z,18.83
2022-08-20T17:46:01.914Z,19.00
2022-08-20T17:48:34.556Z,20.00
2022-08-20T17:51:09.744Z,19.50
2022-08-20T17:53:41.426Z,19.60
2022-08-20T17:56:20.765Z,19.20
2022-08-20T17:58:54.880Z,19.20
2022-08-20T18:01:26.047Z,19.20
2022-08-20T18:03:54.829Z,19.53
2022-08-20T18:06:37.332Z,19.37
2022-08-20T18:09:13.641Z,18.97
2022-08-20T18:11:48.770Z,18.70
2022-08-20T18:14:39.518Z,18.80
2022-08-20T18:17:23.462Z,19.00
2022-08-20T18:20:09.893Z,17.80
2022-08-20T18:22:46.324Z,19.23
2022-08-20T18:25:29.178Z,18.07
2022-08-20T18:28:04.569Z,18.30
2022-08-20T18:30:48.985Z,18.87
2022-08-20T18:33:27.558Z,18.80
2022-08-20T18:36:09.404Z,18.20
2022-08-20T18:38:42.147Z,18.00
2022-08-20T18:41:29.417Z,18.20
2022-08-20T18:44:12.800Z,33.43
2022-08-20T18:46:53.852Z,18.70
2022-08-20T18:49:29.822Z,19.27
2022-08-20T18:52:09.068Z,19.47
2022-08-20T18:54:37.930Z,19.53
2022-08-20T18:57:08.585Z,19.60
2022-08-20T18:59:43.900Z,19.43
2022-08-20T19:02:24.504Z,20.17
2022-08-20T19:05:02.094Z,20.80
2022-08-20T19:07:48.027Z,20.03
2022-08-20T19:10:44.290Z,18.70
2022-08-20T19:13:46.095Z,18.93
2022-08-20T19:16:21.083Z,20.40
2022-08-20T19:18:51.764Z,20.40
2022-08-20T19:21:24.484Z,19.97
2022-08-20T19:24:07.647Z,20.33
2022-08-20T19:26:43.046Z,19.50
2022-08-20T19:29:13.108Z,20.37
2022-08-20T19:31:43.079Z,21.73
2022-08-20T19:34:19.900Z,20.93
2022-08-20T19:36:56.285Z,21.23
2022-08-20T19:39:26.063Z,20.80
2022-08-20T19:41:58.338Z,20.83
2022-08-20T19:44:37.717Z,19.83
2022-08-20T19:47:19.392Z,19.20
2022-08-20T19:49:56.772Z,20.60
2022-08-20T19:52:36.792Z,19.93
2022-08-20T19:55:05.402Z,20.77
2022-08-20T19:57:33.367Z,20.57
2022-08-20T20:00:10.432Z,19.70
2022-08-20T20:02:41.532Z,20.20
2022-08-20T20:05:11.916Z,21.17
2022-08-20T20:07:43.125Z,20.97
2022-08-20T20:10:20.754Z,20.90
2022-08-20T20:12:49.056Z,19.97
2022-08-20T20:15:17.862Z,19.83
2022-08-20T20:17:47.443Z,20.20
2022-08-20T20:20:23.475Z,20.80
2022-08-20T20:22:55.510Z,23.33
2022-08-20T20:25:38.580Z,20.70
2022-08-20T20:28:22.653Z,21.10
2022-08-20T20:30:50.807Z,33.17
2022-08-20T20:33:27.286Z,21.50
2022-08-20T20:36:04.967Z,21.03
2022-08-20T20:38:34.665Z,20.37
2022-08-20T20:41:04.602Z,21.17
2022-08-20T20:43:34.982Z,20.80
2022-08-20T20:46:07.437Z,21.50
2022-08-20T20:48:46.066Z,21.47
2022-08-20T20:51:16.987Z,20.80
2022-08-20T20:53:54.293Z,19.77
2022-08-20T20:56:28.622Z,20.50
2022-08-20T20:58:56.770Z,20.97
2022-08-20T21:01:27.285Z,22.00
2022-08-20T21:04:14.454Z,20.73
2022-08-20T21:06:42.459Z,21.80
2022-08-20T21:09:10.503Z,21.77
2022-08-20T21:11:38.582Z,21.83
2022-08-20T21:14:06.791Z,21.63
2022-08-20T21:16:34.934Z,22.40
2022-08-20T21:19:05.624Z,21.77
2022-08-20T21:21:35.476Z,22.23
2022-08-20T21:24:03.641Z,22.50
2022-08-20T21:26:32.006Z,21.23
2022-08-20T21:29:00.058Z,21.57
2022-08-20T21:31:34.705Z,22.40
2022-08-20T21:34:03.195Z,21.60
2022-08-20T21:36:31.257Z,21.87
2022-08-20T21:39:00.698Z,21.33
2022-08-20T21:41:30.289Z,20.77
2022-08-20T21:43:58.746Z,21.40
2022-08-20T21:46:28.679Z,20.90
2022-08-20T21:48:57.134Z,22.00
2022-08-20T21:51:25.045Z,21.03
2022-08-20T21:53:53.072Z,22.00
2022-08-20T21:56:22.460Z,22.27
2022-08-20T21:58:51.773Z,22.10
2022-08-20T22:01:24.367Z,23.00
2022-08-20T22:03:52.318Z,22.43
2022-08-20T22:06:20.686Z,22.40
2022-08-20T22:08:48.642Z,23.10
2022-08-20T22:11:16.812Z,23.13
2022-08-20T22:13:46.905Z,22.43
2022-08-20T22:16:18.451Z,24.90
2022-08-20T22:18:47.664Z,25.33
2022-08-20T22:21:18.492Z,24.90
2022-08-20T22:23:47.139Z,25.50
2022-08-20T22:26:16.221Z,25.80
2022-08-20T22:28:45.717Z,26.63
2022-08-20T22:31:22.382Z,26.80
2022-08-20T22:33:50.297Z,28.00
2022-08-20T22:36:18.470Z,27.80
2022-08-20T22:38:47.272Z,28.90
2022-08-20T22:41:23.385Z,29.87
2022-08-20T22:43:56.396Z,31.17
2022-08-20T22:46:27.200Z,31.20
2022-08-20T22:48:55.674Z,29.93
2022-08-20T22:51:28.283Z,31.40
2022-08-20T22:53:56.510Z,30.70
2022-08-20T22:56:24.579Z,30.40
2022-08-20T22:58:53.930Z,30.73
2022-08-20T23:01:22.365Z,31.53
2022-08-20T23:03:50.404Z,33.10
2022-08-20T23:06:18.619Z,34.47
2022-08-20T23:08:47.604Z,32.17
2022-08-20T23:11:17.105Z,37.30
2022-08-20T23:13:45.757Z,33.50
2022-08-20T23:16:15.301Z,32.67
2022-08-20T23:18:43.378Z,35.33
2022-08-20T23:21:11.341Z,33.50
2022-08-20T23:23:39.362Z,32.60
2022-08-20T23:26:07.889Z,35.13
2022-08-20T23:28:35.943Z,37.00
2022-08-20T23:31:04.205Z,36.80
2022-08-20T23:33:33.479Z,35.13
2022-08-20T23:36:05.453Z,35.10
2022-08-20T23:38:34.406Z,36.20
2022-08-20T23:41:02.468Z,37.33
2022-08-20T23:43:30.652Z,35.90
2022-08-20T23:46:02.347Z,36.37
2022-08-20T23:48:30.353Z,33.63
2022-08-20T23:50:59.812Z,35.00
2022-08-20T23:53:27.777Z,35.33
2022-08-20T23:55:55.708Z,36.60
2022-08-20T23:58:23.789Z,37.13
